LiveATC.Net - Listen to live air traffic control over the Internet!


ICAO: YBBN  IATA: BNE   Airport: Brisbane International Airport
City: Brisbane   State/Province: Queensland
Country: Australia   Continent: Oceania
YBBN METAR Weather: YBBN 260530Z 36006KT CAVOK 18/06 Q1016 NOSIG
YBBN Flight Activity (FlightAware)
YBBN Gnd/Twr/App/Dep
Feed Status: DOWN
Last heard on: 2016-07-24 10:46:04 (1 days 19 hours 45 minutes ago)
YBBN Gnd/Twr/App/Dep Audio Archives
FacilityFrequency
Approach123.500
Brisbane Approach124.700
Brisbane Approach/Departure125.600
Brisbane Departure128.300
Brisbane Ground121.700
Brisbane Tower120.500


NOTICE

Unauthorized use prohibited. See LiveATC.net Terms of Service


Find LiveATC Audio Streams


Airport/ARTCC Code

Frequency
(e.g., 124.400, 128.75)
Site-wide search

Browse LiveATC Feeds
LiveATC Coverage Map
Top 50 LiveATC Feeds
Bad Weather Areas

LiveATC FAQ
Offer a LiveATC Feed
Contact LiveATC.net
Press Inquiries

LiveATC on iPhone
LiveATC on Android

Windows Phone
Windows 8/10

LiveATC Mobile
(Mobile browser)

ATC Audio Archives
Interesting Recordings

LiveATC Forums


Home Page
About LiveATC.net
Make a Donation
LiveATC Store

Terms of Use
Privacy Policy

Canadian Air Freqs

AIRMETs/SIGMETs

FAA Airport Status
Nat'l Airspace Status
Arrival Demand Charts


Server Software By:
Icecast.org
Liquidsoap